Time;durP1;ratioP1;P1;durP2;ratioP2;P2;SDS_P1;SDS_P2;PMS_P1;PMS_P2;Temp;Humidity;BMP_temperature;BMP_pressure;BME280_temperature;BME280_humidity;BME280_pressure;Samples;Min_cycle;Max_cycle;Signal;HPM_P1;HPM_P2
2021/06/12 00:00:42;;;;;;;6.75;3.10;;;;;;;26.50;42.30;99608.75;4484131;32;33651;-70
2021/06/12 00:03:10;;;;;;;5.40;2.72;;;;;;;26.50;42.25;99609.56;4484139;32;33542;-70
2021/06/12 00:05:37;;;;;;;5.35;2.97;;;;;;;26.49;42.30;99607.94;4483941;32;33754;-71
2021/06/12 00:08:05;;;;;;;6.05;3.20;;;;;;;26.50;42.37;99601.38;4484105;32;32837;-69
2021/06/12 00:10:35;;;;;;;7.35;2.65;;;;;;;26.49;42.32;99599.72;4483922;32;33860;-67
2021/06/12 00:13:03;;;;;;;5.97;3.00;;;;;;;26.50;42.32;99604.09;4484402;32;33240;-70
2021/06/12 00:15:30;;;;;;;5.00;3.22;;;;;;;26.50;42.21;99598.63;4483952;32;33774;-69
2021/06/12 00:17:58;;;;;;;6.55;3.22;;;;;;;26.49;42.23;99602.44;4484055;32;33764;-67
2021/06/12 00:20:31;;;;;;;5.07;3.20;;;;;;;26.49;42.21;99610.66;4482708;32;34111;-71
2021/06/12 00:22:58;;;;;;;5.05;2.92;;;;;;;26.49;42.22;99604.34;4484006;32;33344;-70
2021/06/12 00:25:27;;;;;;;4.62;2.90;;;;;;;26.51;42.18;99603.00;4483603;32;33621;-69
2021/06/12 00:28:02;;;;;;;9.40;3.30;;;;;;;26.49;42.22;99607.06;4483907;32;34811;-69
2021/06/12 00:30:30;;;;;;;4.35;2.95;;;;;;;26.49;42.35;99601.59;4483834;32;33798;-71
2021/06/12 00:33:16;;;;;;;5.20;3.30;;;;;;;26.49;42.38;99596.97;4483938;32;34242;-70
2021/06/12 00:35:43;;;;;;;5.37;2.90;;;;;;;26.49;42.35;99605.19;4483845;32;33782;-70
2021/06/12 00:38:11;;;;;;;7.47;3.58;;;;;;;26.48;42.39;99608.16;4483677;32;33900;-70
2021/06/12 00:40:39;;;;;;;5.82;2.95;;;;;;;26.48;42.38;99614.44;4483835;32;34868;-68
2021/06/12 00:43:07;;;;;;;5.25;3.28;;;;;;;26.47;42.46;99604.59;4484016;32;34128;-71
2021/06/12 00:45:34;;;;;;;6.28;3.30;;;;;;;26.48;42.42;99603.50;4483663;32;33770;-66
2021/06/12 00:48:02;;;;;;;6.50;3.03;;;;;;;26.47;42.46;99604.59;4483731;32;34040;-70
2021/06/12 00:50:32;;;;;;;8.05;3.47;;;;;;;26.46;42.47;99602.94;4483515;32;34147;-70
2021/06/12 00:52:59;;;;;;;6.85;3.22;;;;;;;26.45;42.50;99596.66;4483572;32;34349;-69
2021/06/12 00:55:27;;;;;;;9.00;3.08;;;;;;;26.47;42.46;99588.19;4483871;32;34584;-69
2021/06/12 00:57:55;;;;;;;4.87;2.62;;;;;;;26.47;42.46;99588.19;4483653;32;34033;-70
2021/06/12 01:00:23;;;;;;;4.90;3.20;;;;;;;26.47;42.46;99598.31;4482174;32;33798;-69
2021/06/12 01:02:51;;;;;;;8.43;3.37;;;;;;;26.46;42.44;99597.47;4483494;32;33430;-70
2021/06/12 01:05:20;;;;;;;6.03;2.92;;;;;;;26.46;42.38;99594.75;4483540;32;33871;-70
2021/06/12 01:07:49;;;;;;;8.38;3.10;;;;;;;26.45;42.42;99599.38;4483520;32;33908;-70
2021/06/12 01:10:18;;;;;;;5.90;3.20;;;;;;;26.46;42.40;99602.94;4483982;32;34575;-68
2021/06/12 01:12:47;;;;;;;5.25;3.33;;;;;;;26.45;42.41;99604.03;4485103;32;34298;-70
2021/06/12 01:15:15;;;;;;;5.60;3.42;;;;;;;26.43;42.42;99601.53;4483866;32;33906;-68
2021/06/12 01:17:57;;;;;;;4.55;2.90;;;;;;;26.45;42.25;99601.28;4484132;32;34453;-69
2021/06/12 01:20:50;;;;;;;5.18;3.45;;;;;;;26.47;42.28;99604.59;4471254;32;34863;-69
2021/06/12 01:23:45;;;;;;;4.47;3.08;;;;;;;26.45;42.37;99599.38;4472367;32;33107;-70
2021/06/12 01:26:32;;;;;;;5.53;3.22;;;;;;;26.45;42.34;99604.03;4484079;32;34648;-70
2021/06/12 01:29:22;;;;;;;5.12;3.30;;;;;;;26.43;42.42;99604.25;4485226;32;34895;-70
2021/06/12 01:31:50;;;;;;;6.43;2.92;;;;;;;26.43;42.36;99607.00;4485088;32;33719;-69
2021/06/12 01:34:19;;;;;;;6.22;3.50;;;;;;;26.44;42.40;99607.84;4484211;32;33313;-69
2021/06/12 01:36:46;;;;;;;5.80;3.17;;;;;;;26.41;42.58;99609.12;4471078;32;33535;-71
2021/06/12 01:39:15;;;;;;;5.03;3.45;;;;;;;26.42;42.59;99601.75;4484012;32;33224;-69
2021/06/12 01:41:43;;;;;;;4.55;3.10;;;;;;;26.42;42.55;99599.84;4483779;32;33983;-70
2021/06/12 01:44:10;;;;;;;5.10;3.35;;;;;;;26.44;42.57;99605.13;4485438;32;34262;-70
2021/06/12 01:46:45;;;;;;;6.03;3.30;;;;;;;26.42;42.61;99602.59;4471483;32;33526;-71
2021/06/12 01:49:14;;;;;;;4.62;3.12;;;;;;;26.43;42.59;99606.16;4483898;32;34669;-71
2021/06/12 01:51:42;;;;;;;6.70;3.27;;;;;;;26.43;42.57;99607.00;4484911;32;33879;-69
2021/06/12 01:54:09;;;;;;;5.60;3.33;;;;;;;26.44;42.51;99607.84;4470908;32;33844;-69
2021/06/12 01:56:37;;;;;;;5.37;2.95;;;;;;;26.45;42.59;99609.50;4470838;32;34357;-69
2021/06/12 01:59:05;;;;;;;8.07;3.40;;;;;;;26.45;42.56;99610.31;4470718;32;35178;-69
2021/06/12 02:01:32;;;;;;;6.37;3.60;;;;;;;26.45;42.56;99609.50;4483818;32;33746;-70
2021/06/12 02:04:01;;;;;;;5.03;3.22;;;;;;;26.45;42.57;99609.50;4471182;32;34194;-71
2021/06/12 02:06:29;;;;;;;5.78;3.65;;;;;;;26.46;42.45;99608.41;4483447;32;33466;-68
2021/06/12 02:08:56;;;;;;;5.78;3.35;;;;;;;26.45;42.54;99598.56;4483877;32;33687;-68
2021/06/12 02:11:24;;;;;;;8.32;3.42;;;;;;;26.49;42.44;99609.81;4483712;32;33781;-70
2021/06/12 02:13:52;;;;;;;4.90;2.97;;;;;;;26.48;42.51;99611.72;4484774;32;33409;-70
2021/06/12 02:16:23;;;;;;;6.78;3.75;;;;;;;26.48;42.47;99619.94;4470675;32;34479;-71
2021/06/12 02:18:51;;;;;;;9.63;3.40;;;;;;;26.48;42.46;99621.84;4470905;32;33018;-69
2021/06/12 02:21:20;;;;;;;6.70;3.60;;;;;;;26.49;42.40;99623.47;4484326;32;33780;-70
2021/06/12 02:23:48;;;;;;;8.18;3.33;;;;;;;26.47;42.41;99617.44;4484809;32;34226;-70
2021/06/12 02:26:17;;;;;;;5.75;3.97;;;;;;;26.47;42.33;99622.91;4483528;32;33775;-69
2021/06/12 02:28:44;;;;;;;7.37;3.40;;;;;;;26.48;42.29;99621.84;4470594;32;33848;-70
2021/06/12 02:31:15;;;;;;;6.20;3.25;;;;;;;26.47;42.35;99622.91;4484633;32;34025;-70
2021/06/12 02:33:45;;;;;;;6.32;3.72;;;;;;;26.45;42.41;99620.44;4484733;32;33517;-69
2021/06/12 02:36:13;;;;;;;5.50;3.65;;;;;;;26.45;42.37;99623.19;4484695;32;33534;-69
2021/06/12 02:38:41;;;;;;;10.02;3.83;;;;;;;26.47;42.35;99622.91;4484757;32;33960;-75
2021/06/12 02:41:09;;;;;;;10.15;3.92;;;;;;;26.45;42.52;99615.81;4484463;32;33814;-70
2021/06/12 02:43:36;;;;;;;6.72;3.92;;;;;;;26.44;42.13;99616.88;4484740;32;33304;-71
2021/06/12 02:46:05;;;;;;;8.55;3.70;;;;;;;26.43;42.03;99620.69;4484702;32;33916;-71
2021/06/12 02:48:33;;;;;;;9.35;4.15;;;;;;;26.43;42.20;99623.41;4484468;32;33937;-71
2021/06/12 02:51:01;;;;;;;9.93;3.80;;;;;;;26.44;42.17;99621.53;4470499;32;33776;-71
2021/06/12 02:53:32;;;;;;;10.60;3.65;;;;;;;26.42;42.28;99621.72;4483284;32;33293;-69
2021/06/12 02:56:01;;;;;;;9.57;3.55;;;;;;;26.42;42.19;99618.16;4483173;32;33833;-69
2021/06/12 02:58:29;;;;;;;8.40;3.80;;;;;;;26.41;42.17;99622.81;4484713;32;34783;-71
2021/06/12 03:00:57;;;;;;;6.53;3.67;;;;;;;26.43;42.14;99628.06;4483313;32;33822;-68
2021/06/12 03:03:25;;;;;;;6.50;4.22;;;;;;;26.43;42.12;99633.53;4483232;32;33057;-70
2021/06/12 03:05:56;;;;;;;8.15;3.80;;;;;;;26.42;42.18;99629.94;4470384;32;33787;-70
2021/06/12 03:08:27;;;;;;;6.53;3.80;;;;;;;26.42;42.13;99634.59;4483230;32;35031;-68
2021/06/12 03:10:55;;;;;;;6.60;4.20;;;;;;;26.41;42.03;99639.22;4470585;32;33568;-70
2021/06/12 03:13:45;;;;;;;8.35;4.22;;;;;;;26.43;42.06;99634.34;4472670;32;34402;-70
2021/06/12 03:16:13;;;;;;;10.15;4.18;;;;;;;26.41;42.18;99641.97;4484271;32;34981;-71
2021/06/12 03:18:44;;;;;;;13.25;4.00;;;;;;;26.41;42.20;99641.97;4483337;32;33826;-70
2021/06/12 03:21:11;;;;;;;;;;;;;;;26.42;42.26;99645.53;4483276;32;33653;-70
2021/06/12 03:23:39;;;;;;;8.60;3.80;;;;;;;26.54;42.00;99640.84;4483289;32;34365;-71
2021/06/12 03:26:08;;;;;;;7.00;3.72;;;;;;;26.45;42.23;99647.81;4470145;32;33783;-68
2021/06/12 03:28:36;;;;;;;8.45;3.85;;;;;;;26.43;42.28;99649.94;4484410;32;33925;-70
2021/06/12 03:31:04;;;;;;;5.28;3.67;;;;;;;26.44;42.20;99652.44;4470218;32;34858;-70
2021/06/12 03:33:31;;;;;;;5.68;3.60;;;;;;;26.42;42.19;99653.72;4474011;32;34162;-70
2021/06/12 03:35:59;;;;;;;8.80;4.03;;;;;;;26.42;42.27;99645.53;4478708;31;33903;-68
2021/06/12 03:38:28;;;;;;;9.45;4.15;;;;;;;26.41;42.28;99646.62;4482820;32;33899;-68
2021/06/12 03:40:57;;;;;;;6.93;4.03;;;;;;;26.41;42.35;99644.69;4483479;32;34410;-69
2021/06/12 03:43:24;;;;;;;6.47;3.40;;;;;;;26.42;42.25;99648.25;4480368;32;33336;-67
2021/06/12 03:45:54;;;;;;;10.93;5.10;;;;;;;26.43;42.24;99652.69;4467200;32;33829;-69
2021/06/12 03:48:22;;;;;;;6.20;3.60;;;;;;;26.43;42.30;99648.03;4482438;32;34766;-68
2021/06/12 03:50:50;;;;;;;7.28;3.78;;;;;;;26.46;42.31;99654.94;4466949;32;33748;-70
2021/06/12 03:53:19;;;;;;;6.37;3.58;;;;;;;26.45;42.45;99648.63;4473045;32;33215;-68
2021/06/12 03:55:50;;;;;;;6.15;3.20;;;;;;;26.46;42.46;99657.66;4483024;32;33774;-68
2021/06/12 03:58:18;;;;;;;7.30;3.70;;;;;;;26.45;42.54;99653.28;4460721;32;33494;-68
2021/06/12 04:00:45;;;;;;;6.55;4.05;;;;;;;26.48;42.52;99651.94;4453596;32;33754;-67
2021/06/12 04:03:13;;;;;;;8.20;4.00;;;;;;;26.48;42.56;99646.47;4469013;32;33034;-67
2021/06/12 04:05:41;;;;;;;5.78;3.60;;;;;;;26.49;42.52;99642.63;4483000;32;33747;-68
2021/06/12 04:08:08;;;;;;;6.85;3.70;;;;;;;26.50;42.52;99649.78;4483427;32;33745;-68
2021/06/12 04:10:36;;;;;;;6.03;3.70;;;;;;;26.50;42.53;99658.00;4482852;32;33983;-67
2021/06/12 04:13:04;;;;;;;5.68;4.05;;;;;;;26.49;42.54;99651.69;4483039;32;33584;-68
2021/06/12 04:15:31;;;;;;;9.02;3.87;;;;;;;26.49;42.58;99654.44;4483367;31;33910;-68
2021/06/12 04:18:07;;;;;;;8.18;3.85;;;;;;;26.48;42.58;99652.75;4483100;32;34117;-68
2021/06/12 04:20:38;;;;;;;7.50;4.22;;;;;;;26.49;42.57;99645.38;4481531;32;34844;-64
2021/06/12 04:23:06;;;;;;;8.85;3.70;;;;;;;26.50;42.55;99652.53;4483322;32;32924;-63
2021/06/12 04:25:34;;;;;;;6.85;3.30;;;;;;;26.50;42.55;99656.09;4483074;32;34652;-67
2021/06/12 04:28:02;;;;;;;7.65;3.62;;;;;;;26.52;42.51;99656.66;4482652;32;33723;-67
2021/06/12 04:30:30;;;;;;;6.40;3.47;;;;;;;26.52;42.47;99659.38;4483229;32;33562;-68
2021/06/12 04:32:59;;;;;;;6.53;3.47;;;;;;;26.51;42.52;99665.94;4482501;32;34138;-63
2021/06/12 04:35:28;;;;;;;6.47;3.90;;;;;;;26.50;42.51;99661.56;4481532;32;34653;-60
2021/06/12 04:37:59;;;;;;;7.37;3.65;;;;;;;26.53;42.46;99655.56;4469926;32;34510;-65
2021/06/12 04:40:28;;;;;;;7.57;4.32;;;;;;;26.55;42.47;99650.69;4481041;32;33809;-64
2021/06/12 04:42:57;;;;;;;;;;;;;;;26.51;42.47;99660.47;4482149;32;33998;-69
2021/06/12 04:45:25;;;;;;;5.05;3.47;;;;;;;26.65;42.21;99652.75;4481724;32;33886;-68
2021/06/12 04:47:53;;;;;;;4.95;3.47;;;;;;;26.56;42.44;99652.34;4480941;32;34867;-69
2021/06/12 04:50:20;;;;;;;8.25;4.00;;;;;;;26.57;42.47;99653.16;4483389;32;33561;-67
2021/06/12 04:52:48;;;;;;;8.07;4.12;;;;;;;26.52;42.64;99640.22;4483248;32;33376;-68
2021/06/12 04:55:16;;;;;;;15.90;4.10;;;;;;;26.50;42.66;99645.13;4483614;32;34787;-69
2021/06/12 04:57:44;;;;;;;7.47;3.95;;;;;;;26.51;42.67;99654.19;4483485;32;33825;-68
2021/06/12 05:00:12;;;;;;;6.25;3.45;;;;;;;26.51;42.68;99652.25;4483279;32;34082;-69
2021/06/12 05:02:40;;;;;;;6.85;3.95;;;;;;;26.52;42.71;99659.38;4483439;32;33493;-70
2021/06/12 05:05:09;;;;;;;6.72;3.90;;;;;;;26.50;42.85;99656.09;4482612;32;33882;-67
2021/06/12 05:07:37;;;;;;;9.68;3.80;;;;;;;26.48;42.94;99660.97;4482684;32;33844;-69
2021/06/12 05:10:05;;;;;;;9.90;4.00;;;;;;;26.50;42.88;99664.28;4482748;32;33564;-70
2021/06/12 05:12:33;;;;;;;9.18;3.87;;;;;;;26.50;42.87;99661.56;4481295;32;33078;-71
2021/06/12 05:15:01;;;;;;;7.72;3.80;;;;;;;26.51;42.87;99662.38;4483178;32;33904;-69
2021/06/12 05:17:29;;;;;;;8.93;3.95;;;;;;;26.50;42.91;99668.94;4483083;32;33844;-69
2021/06/12 05:19:57;;;;;;;8.18;4.18;;;;;;;26.51;42.81;99668.69;4483379;32;33878;-69
2021/06/12 05:22:25;;;;;;;9.63;4.37;;;;;;;26.50;42.76;99668.94;4480595;32;33867;-67
2021/06/12 05:24:54;;;;;;;9.60;4.10;;;;;;;26.50;42.72;99666.22;4482478;32;33824;-68
2021/06/12 05:27:22;;;;;;;7.32;3.67;;;;;;;26.50;42.65;99663.47;4481713;32;34877;-64
2021/06/12 05:29:49;;;;;;;7.68;3.67;;;;;;;26.51;42.73;99663.22;4480958;32;34688;-67
2021/06/12 05:32:17;;;;;;;7.10;3.62;;;;;;;26.52;42.79;99664.84;4482020;32;33229;-63
2021/06/12 05:34:45;;;;;;;7.53;4.00;;;;;;;26.53;42.82;99668.41;4481929;32;33473;-63
2021/06/12 05:37:13;;;;;;;8.15;3.92;;;;;;;26.55;42.77;99669.84;4481309;32;33833;-63
2021/06/12 05:39:41;;;;;;;6.30;3.80;;;;;;;26.55;42.84;99674.50;4482172;32;33730;-64
2021/06/12 05:42:09;;;;;;;8.75;3.70;;;;;;;26.55;42.84;99679.97;4482056;32;34267;-66
2021/06/12 05:44:37;;;;;;;9.95;3.97;;;;;;;26.56;42.81;99685.19;4481851;32;35276;-66
2021/06/12 05:47:04;;;;;;;6.18;4.03;;;;;;;26.59;42.80;99689.34;4481904;32;34846;-64
2021/06/12 05:49:32;;;;;;;6.18;3.45;;;;;;;26.58;42.78;99693.97;4481806;32;34008;-64
2021/06/12 05:52:00;;;;;;;8.20;3.87;;;;;;;26.59;42.77;99692.91;4481820;32;33503;-65
2021/06/12 05:54:27;;;;;;;8.32;3.70;;;;;;;26.58;42.76;99685.78;4481721;32;33878;-65
2021/06/12 05:56:56;;;;;;;6.40;3.70;;;;;;;26.60;42.76;99688.25;4482607;32;33898;-64
2021/06/12 05:59:24;;;;;;;5.78;3.80;;;;;;;26.60;42.78;99688.25;4483756;32;34759;-68
2021/06/12 06:01:51;;;;;;;5.87;4.07;;;;;;;26.59;42.79;99690.16;4482673;32;33317;-65
2021/06/12 06:04:20;;;;;;;7.87;3.92;;;;;;;26.60;42.80;99685.50;4484037;32;33669;-68
2021/06/12 06:06:47;;;;;;;8.27;4.47;;;;;;;26.59;42.84;99684.69;4483683;32;33851;-67
2021/06/12 06:09:15;;;;;;;6.60;3.83;;;;;;;26.57;42.90;99686.00;4484001;32;33379;-66
2021/06/12 06:11:42;;;;;;;5.45;3.85;;;;;;;26.59;42.87;99676.47;4484034;32;33230;-64
2021/06/12 06:14:10;;;;;;;8.52;4.28;;;;;;;26.61;42.84;99688.00;4483774;32;33907;-67
2021/06/12 06:16:37;;;;;;;6.53;4.32;;;;;;;26.58;42.88;99684.91;4483987;32;33845;-68
2021/06/12 06:19:05;;;;;;;7.95;4.05;;;;;;;26.57;42.88;99686.81;4483719;32;34408;-69
2021/06/12 06:21:33;;;;;;;9.10;4.32;;;;;;;26.59;42.86;99681.13;4483717;32;33199;-67
2021/06/12 06:24:00;;;;;;;6.72;4.07;;;;;;;26.61;42.83;99682.50;4482926;32;33825;-66
2021/06/12 06:26:28;;;;;;;4.90;3.40;;;;;;;26.59;42.97;99683.84;4484188;32;33837;-63
2021/06/12 06:28:56;;;;;;;4.97;3.90;;;;;;;26.61;42.86;99690.72;4483610;32;34619;-64
2021/06/12 06:31:24;;;;;;;7.03;3.40;;;;;;;26.64;42.80;99684.75;4484246;32;33227;-61
2021/06/12 06:33:54;;;;;;;8.27;3.95;;;;;;;26.67;42.75;99688.87;4483846;32;33501;-68
2021/06/12 06:36:21;;;;;;;5.97;3.80;;;;;;;26.64;42.73;99678.47;4483655;31;33930;-65
2021/06/12 06:38:49;;;;;;;6.10;3.55;;;;;;;26.63;42.84;99679.53;4483905;32;34809;-64
2021/06/12 06:41:17;;;;;;;6.15;4.07;;;;;;;26.61;42.91;99677.03;4483797;32;33369;-68
2021/06/12 06:43:45;;;;;;;6.40;3.97;;;;;;;26.60;42.95;99680.87;4483283;32;34640;-63
2021/06/12 06:46:12;;;;;;;7.70;4.15;;;;;;;26.59;43.00;99687.41;4483901;32;33839;-67
2021/06/12 06:48:40;;;;;;;5.12;3.60;;;;;;;26.60;43.04;99678.12;4482893;32;34492;-63
2021/06/12 06:51:08;;;;;;;7.07;4.25;;;;;;;26.60;43.04;99675.38;4483799;32;34211;-65
2021/06/12 06:53:35;;;;;;;7.20;4.05;;;;;;;26.60;43.00;99674.56;4483699;32;33798;-63
2021/06/12 06:56:04;;;;;;;5.95;3.80;;;;;;;26.60;43.08;99669.91;4483141;32;33692;-70
2021/06/12 06:58:32;;;;;;;5.55;3.85;;;;;;;26.62;43.02;99673.22;4483928;32;33784;-71
2021/06/12 07:01:03;;;;;;;8.10;3.72;;;;;;;26.64;43.05;99675.72;4484468;32;33200;-68
2021/06/12 07:03:31;;;;;;;14.60;4.35;;;;;;;26.64;42.99;99684.75;4484586;32;33638;-71
2021/06/12 07:05:58;;;;;;;8.90;4.10;;;;;;;26.64;42.97;99682.03;4484577;32;33720;-71
2021/06/12 07:08:26;;;;;;;7.53;3.67;;;;;;;26.65;42.79;99680.13;4484533;32;33716;-70
2021/06/12 07:10:54;;;;;;;8.05;4.00;;;;;;;26.65;42.76;99680.13;4484230;32;33277;-69
2021/06/12 07:13:22;;;;;;;12.25;4.03;;;;;;;26.65;42.72;99682.84;4484347;32;33772;-66
2021/06/12 07:15:50;;;;;;;6.28;3.40;;;;;;;26.66;42.66;99677.12;4484587;32;34814;-69
2021/06/12 07:18:18;;;;;;;6.80;3.67;;;;;;;26.65;42.54;99678.19;4484270;32;34598;-71
2021/06/12 07:20:48;;;;;;;8.57;4.00;;;;;;;26.63;42.47;99679.53;4484451;32;33517;-71
2021/06/12 07:23:16;;;;;;;11.75;3.95;;;;;;;26.64;42.42;99676.56;4483327;32;33832;-68
2021/06/12 07:25:44;;;;;;;8.82;3.80;;;;;;;26.63;42.39;99677.62;4484274;32;34826;-70
2021/06/12 07:28:12;;;;;;;7.18;3.85;;;;;;;26.64;42.37;99676.56;4483956;32;33734;-70
2021/06/12 07:30:41;;;;;;;7.93;3.92;;;;;;;26.65;42.30;99678.19;4484564;32;33772;-68
2021/06/12 07:33:09;;;;;;;8.50;3.70;;;;;;;26.66;42.31;99679.03;4484810;32;33769;-71
2021/06/12 07:35:38;;;;;;;8.60;4.25;;;;;;;26.67;42.28;99672.47;4484268;31;34781;-70
2021/06/12 07:38:06;;;;;;;7.93;3.92;;;;;;;26.68;42.18;99676.88;4482552;32;34651;-70
2021/06/12 07:40:34;;;;;;;5.93;3.83;;;;;;;26.69;42.18;99676.62;4484640;32;33265;-66
2021/06/12 07:43:03;;;;;;;7.62;3.95;;;;;;;26.66;42.12;99677.12;4470254;32;34558;-70
2021/06/12 07:45:30;;;;;;;8.32;3.85;;;;;;;26.68;42.04;99680.44;4483880;32;34884;-70
2021/06/12 07:47:58;;;;;;;9.75;3.75;;;;;;;26.68;42.02;99674.16;4482696;32;33931;-69
2021/06/12 07:50:27;;;;;;;7.22;3.95;;;;;;;26.67;41.90;99684.28;4483977;32;34503;-69
2021/06/12 07:52:54;;;;;;;6.53;4.40;;;;;;;26.66;41.93;99681.75;4483592;32;34552;-69
2021/06/12 07:55:22;;;;;;;8.23;4.32;;;;;;;26.66;41.85;99682.59;4483731;32;33529;-70
2021/06/12 07:57:49;;;;;;;6.95;3.87;;;;;;;26.67;41.81;99688.87;4484338;32;33780;-70
2021/06/12 08:00:18;;;;;;;6.57;3.97;;;;;;;26.68;41.82;99685.09;4483895;32;33106;-70
2021/06/12 08:02:45;;;;;;;6.32;4.18;;;;;;;26.66;41.84;99690.81;4484275;32;33738;-71
2021/06/12 08:05:13;;;;;;;7.53;3.85;;;;;;;26.65;41.85;99680.94;4484202;32;33966;-70
2021/06/12 08:07:40;;;;;;;5.78;4.00;;;;;;;26.64;41.85;99683.94;4483960;32;33763;-71
2021/06/12 08:10:09;;;;;;;8.70;4.10;;;;;;;26.64;41.84;99682.03;4483946;32;34333;-69
2021/06/12 08:12:36;;;;;;;7.53;4.57;;;;;;;26.65;41.84;99678.19;4484032;32;33803;-70
2021/06/12 08:15:05;;;;;;;6.62;4.10;;;;;;;26.63;41.91;99679.53;4483961;32;33980;-71
2021/06/12 08:17:33;;;;;;;8.90;4.28;;;;;;;26.64;41.88;99686.66;4483933;32;34041;-69
2021/06/12 08:20:00;;;;;;;6.25;4.03;;;;;;;26.65;41.86;99675.47;4483204;32;33511;-69
2021/06/12 08:22:29;;;;;;;7.12;4.20;;;;;;;26.67;41.87;99672.47;4484040;32;33702;-70
2021/06/12 08:24:57;;;;;;;5.15;4.00;;;;;;;26.66;41.86;99668.91;4482845;32;34596;-71
2021/06/12 08:27:24;;;;;;;6.62;4.35;;;;;;;26.66;41.86;99677.12;4483906;32;34397;-68
2021/06/12 08:29:52;;;;;;;6.35;3.90;;;;;;;26.67;41.88;99673.31;4483710;32;34099;-70
2021/06/12 08:32:20;;;;;;;6.43;4.20;;;;;;;26.66;41.91;99676.28;4484165;32;34584;-70
2021/06/12 08:34:47;;;;;;;7.10;4.40;;;;;;;26.67;41.84;99677.94;4483669;32;33261;-71
2021/06/12 08:37:15;;;;;;;6.72;4.22;;;;;;;26.66;41.84;99685.31;4483820;32;33842;-70
2021/06/12 08:39:43;;;;;;;7.22;4.50;;;;;;;26.63;41.96;99685.84;4483545;32;34370;-70
2021/06/12 08:42:10;;;;;;;6.32;4.20;;;;;;;26.64;41.94;99675.72;4483546;32;33788;-70
2021/06/12 08:44:38;;;;;;;5.60;4.32;;;;;;;26.64;41.95;99686.66;4483723;32;34944;-68
2021/06/12 08:47:06;;;;;;;7.03;4.68;;;;;;;26.65;41.93;99685.59;4469669;32;34485;-71
2021/06/12 08:49:33;;;;;;;6.75;4.32;;;;;;;26.62;41.97;99675.94;4482313;32;33342;-71
2021/06/12 08:52:01;;;;;;;7.53;4.75;;;;;;;26.64;41.95;99682.03;4483704;32;33891;-70
2021/06/12 08:54:29;;;;;;;5.18;3.95;;;;;;;26.63;41.95;99676.81;4483376;32;34505;-69
2021/06/12 08:56:56;;;;;;;10.00;4.20;;;;;;;26.65;41.91;99680.13;4483245;32;33722;-69
2021/06/12 08:59:25;;;;;;;6.32;4.30;;;;;;;26.64;41.93;99683.94;4483644;32;33040;-70
2021/06/12 09:01:52;;;;;;;6.12;4.22;;;;;;;26.65;41.90;99677.38;4483592;32;33872;-70
2021/06/12 09:04:30;;;;;;;7.00;4.40;;;;;;;26.66;41.86;99671.63;4483267;32;34911;-68
2021/06/12 09:07:16;;;;;;;7.82;4.30;;;;;;;26.64;41.87;99670.25;4483499;32;33821;-70
2021/06/12 09:09:44;;;;;;;5.90;4.45;;;;;;;26.66;41.79;99666.16;4483415;32;33503;-70
2021/06/12 09:12:12;;;;;;;6.85;4.03;;;;;;;26.63;41.78;99655.75;4483460;32;34333;-70
2021/06/12 09:14:40;;;;;;;7.85;4.03;;;;;;;26.64;41.72;99665.59;4483041;32;33842;-70
2021/06/12 09:17:07;;;;;;;8.82;4.72;;;;;;;26.63;41.70;99661.22;4483244;32;33886;-70
2021/06/12 09:19:39;;;;;;;7.03;4.78;;;;;;;26.65;41.65;99658.22;4483323;32;33452;-71
2021/06/12 09:22:09;;;;;;;9.00;4.90;;;;;;;26.64;41.54;99651.91;4483482;32;33687;-70
2021/06/12 09:24:49;;;;;;;6.35;4.40;;;;;;;26.64;41.41;99653.84;4482944;32;33657;-69
2021/06/12 09:27:18;;;;;;;6.43;3.85;;;;;;;26.64;41.41;99659.31;4467569;32;34000;-70
2021/06/12 09:29:51;;;;;;;6.95;4.60;;;;;;;26.64;41.34;99660.13;4467377;32;32991;-69
2021/06/12 09:32:23;;;;;;;6.55;4.57;;;;;;;26.62;41.22;99658.72;4469047;32;33744;-71
2021/06/12 09:34:53;;;;;;;7.75;4.32;;;;;;;26.64;41.11;99656.56;4475982;32;33821;-71
2021/06/12 09:37:23;;;;;;;6.60;4.30;;;;;;;26.63;40.96;99654.91;4485544;32;33603;-70
2021/06/12 09:40:06;;;;;;;6.30;4.55;;;;;;;26.64;40.90;99656.56;4485555;32;34200;-71
2021/06/12 09:42:47;;;;;;;5.78;4.12;;;;;;;26.68;40.83;99660.47;4485239;32;33872;-70
2021/06/12 09:45:22;;;;;;;6.75;4.25;;;;;;;26.67;40.98;99665.09;4484656;32;33822;-71
2021/06/12 09:47:50;;;;;;;6.60;4.47;;;;;;;26.66;40.88;99660.69;4483481;32;33839;-64
2021/06/12 09:50:21;;;;;;;9.82;4.75;;;;;;;26.64;40.75;99657.41;4485147;32;33253;-62
2021/06/12 09:52:51;;;;;;;6.93;4.55;;;;;;;26.65;41.15;99655.47;4484955;32;34276;-62
2021/06/12 09:55:26;;;;;;;10.77;4.93;;;;;;;26.66;41.13;99657.97;4485238;32;33783;-63
2021/06/12 09:57:59;;;;;;;13.23;4.93;;;;;;;26.67;41.15;99664.25;4484594;32;34822;-62
2021/06/12 10:00:28;;;;;;;8.38;4.50;;;;;;;26.67;41.20;99665.09;4485038;32;33342;-62
2021/06/12 10:02:57;;;;;;;12.00;4.20;;;;;;;26.67;41.29;99656.03;4485013;32;33371;-62
2021/06/12 10:05:27;;;;;;;9.15;4.60;;;;;;;26.69;41.32;99657.47;4485104;32;33900;-63
2021/06/12 10:07:54;;;;;;;8.00;4.57;;;;;;;26.70;41.33;99664.59;4485054;32;33614;-62
2021/06/12 10:10:22;;;;;;;9.02;4.80;;;;;;;26.71;41.38;99663.50;4484942;32;34058;-62
2021/06/12 10:12:50;;;;;;;9.50;4.35;;;;;;;26.70;41.53;99670.06;4484524;32;34639;-62
2021/06/12 10:15:18;;;;;;;12.10;4.55;;;;;;;26.73;41.48;99657.78;4483602;32;33892;-62
2021/06/12 10:17:55;;;;;;;9.32;4.95;;;;;;;26.74;41.50;99656.72;4484798;32;33721;-62
2021/06/12 10:20:24;;;;;;;9.82;4.70;;;;;;;26.75;41.51;99657.53;4483634;32;34166;-62
2021/06/12 10:22:53;;;;;;;9.05;5.07;;;;;;;26.74;41.46;99659.44;4484605;32;34689;-62
2021/06/12 10:25:21;;;;;;;6.68;4.40;;;;;;;26.76;41.46;99656.44;4484667;32;33601;-62
2021/06/12 10:27:49;;;;;;;7.80;4.32;;;;;;;26.78;41.44;99646.09;4484975;32;33703;-62
2021/06/12 10:30:18;;;;;;;5.72;4.03;;;;;;;26.77;41.50;99636.22;4484850;32;33293;-62
2021/06/12 10:32:50;;;;;;;7.87;5.75;;;;;;;26.78;41.49;99635.16;4483121;32;33652;-62
2021/06/12 10:35:23;;;;;;;10.45;5.03;;;;;;;26.79;41.50;99637.63;4469016;32;33496;-62
2021/06/12 10:37:59;;;;;;;7.75;4.60;;;;;;;26.77;41.55;99636.22;4476510;32;34652;-62
2021/06/12 10:40:36;;;;;;;8.27;4.50;;;;;;;26.80;41.47;99631.06;4484778;32;33523;-63
2021/06/12 10:43:14;;;;;;;7.32;4.35;;;;;;;26.80;41.50;99627.50;4484510;32;33588;-63
2021/06/12 10:46:02;;;;;;;9.10;4.90;;;;;;;26.81;41.47;99620.94;4484857;32;35437;-62
2021/06/12 10:48:44;;;;;;;8.48;4.60;;;;;;;26.83;41.45;99624.25;4473708;31;34004;-62
2021/06/12 10:51:14;;;;;;;9.10;4.40;;;;;;;26.82;41.40;99625.34;4484645;32;33440;-62
2021/06/12 10:53:43;;;;;;;10.30;4.18;;;;;;;26.78;41.44;99613.25;4484630;32;33915;-62
2021/06/12 10:56:11;;;;;;;13.50;5.07;;;;;;;26.81;41.41;99610.81;4484712;32;34676;-62
2021/06/12 10:58:43;;;;;;;9.25;4.70;;;;;;;26.81;41.45;99599.03;4483076;32;33740;-62
2021/06/12 11:01:20;;;;;;;9.95;5.07;;;;;;;26.81;41.47;99612.72;4484246;32;33572;-62
2021/06/12 11:06:56;;;;;;;9.30;4.68;;;;;;;26.81;41.50;99602.59;4484447;32;34921;-62
2021/06/12 11:09:29;;;;;;;10.27;4.80;;;;;;;26.83;41.52;99599.63;4484404;32;33834;-62
2021/06/12 11:11:58;;;;;;;10.02;4.40;;;;;;;26.81;41.58;99597.13;4484573;32;33409;-62
2021/06/12 11:14:28;;;;;;;7.25;4.55;;;;;;;26.81;41.63;99588.91;4484452;32;33735;-62
2021/06/12 11:17:07;;;;;;;7.47;4.70;;;;;;;26.82;41.65;99590.59;4484115;31;33937;-62
2021/06/12 11:19:39;;;;;;;11.82;5.50;;;;;;;26.84;41.69;99593.06;4484250;32;34537;-61
2021/06/12 11:22:21;;;;;;;7.18;4.35;;;;;;;26.83;41.75;99580.47;4484530;32;34125;-62
2021/06/12 11:24:51;;;;;;;10.73;4.55;;;;;;;26.86;41.72;99574.44;4484482;32;33875;-62
2021/06/12 11:27:26;;;;;;;11.30;5.15;;;;;;;26.84;41.86;99577.47;4484494;32;33838;-63
2021/06/12 11:30:23;;;;;;;9.35;5.00;;;;;;;26.87;41.85;99576.13;4484095;32;33868;-63
2021/06/12 11:32:52;;;;;;;11.57;4.90;;;;;;;26.90;41.64;99570.12;4484133;32;33314;-63
2021/06/12 11:35:52;;;;;;;8.30;4.68;;;;;;;26.86;41.77;99567.09;4484252;31;34821;-70
2021/06/12 11:38:33;;;;;;;7.62;4.97;;;;;;;26.89;41.67;99563.81;4484039;32;33940;-68
2021/06/12 11:41:05;;;;;;;13.00;5.22;;;;;;;26.87;41.75;99555.06;4484339;32;34734;-68
2021/06/12 11:43:35;;;;;;;11.63;5.35;;;;;;;26.83;41.89;99555.81;4484344;32;33661;-70
2021/06/12 11:46:13;;;;;;;8.32;4.80;;;;;;;26.83;41.93;99555.81;4484436;32;33856;-73
2021/06/12 11:48:43;;;;;;;7.10;5.00;;;;;;;26.82;41.98;99555.00;4482590;32;35434;-70